Time;durP1;ratioP1;P1;durP2;ratioP2;P2;SDS_P1;SDS_P2;PMS_P1;PMS_P2;Temp;Humidity;BMP_temperature;BMP_pressure;BME280_temperature;BME280_humidity;BME280_pressure;Samples;Min_cycle;Max_cycle;Signal;HPM_P1;HPM_P2
2024/02/09 00:00:22;;;;;;;4.03;2.22;;;;;;;8.85;100.00;95313.13;5016211;28;20513;-78
2024/02/09 00:02:48;;;;;;;3.93;2.37;;;;;;;8.84;100.00;95324.75;5033754;28;20885;-77
2024/02/09 00:05:15;;;;;;;3.90;2.10;;;;;;;8.81;100.00;95316.63;5034322;28;20465;-77
2024/02/09 00:07:48;;;;;;;2.80;2.00;;;;;;;8.79;100.00;95316.94;5036440;28;20396;-78
2024/02/09 00:10:18;;;;;;;4.77;2.17;;;;;;;8.78;100.00;95315.38;5036724;28;20391;-79
2024/02/09 00:12:44;;;;;;;2.22;1.73;;;;;;;8.77;100.00;95313.00;5036959;28;20808;-79
2024/02/09 00:15:10;;;;;;;2.75;1.98;;;;;;;8.74;100.00;95292.47;5035510;28;20934;-77
2024/02/09 00:17:37;;;;;;;2.40;1.70;;;;;;;8.72;100.00;95292.00;5034905;28;20433;-77
2024/02/09 00:20:07;;;;;;;2.35;1.70;;;;;;;8.70;100.00;95291.50;5037339;28;20403;-78
2024/02/09 00:22:34;;;;;;;4.30;1.88;;;;;;;8.68;100.00;95288.38;5037216;28;20419;-77
2024/02/09 00:25:01;;;;;;;2.72;1.60;;;;;;;8.65;100.00;95275.75;5037588;28;20876;-79
2024/02/09 00:27:27;;;;;;;8.73;3.30;;;;;;;8.62;100.00;95271.06;5038301;28;20407;-78
2024/02/09 00:29:53;;;;;;;4.80;2.05;;;;;;;8.58;100.00;95275.34;5036448;28;20407;-78
2024/02/09 00:32:20;;;;;;;2.95;1.95;;;;;;;8.52;100.00;95267.53;5035491;28;20435;-78
2024/02/09 00:34:47;;;;;;;2.97;1.90;;;;;;;8.49;100.00;95265.47;5036057;28;20410;-78
2024/02/09 00:37:13;;;;;;;4.00;1.90;;;;;;;8.46;100.00;95273.19;5035938;28;20423;-79
2024/02/09 00:39:39;;;;;;;6.38;2.53;;;;;;;8.44;100.00;95272.69;5035863;28;20445;-78
2024/02/09 00:42:06;;;;;;;10.77;3.40;;;;;;;8.37;100.00;95261.72;5035786;28;20761;-78
2024/02/09 00:44:33;;;;;;;7.82;3.10;;;;;;;8.35;100.00;95262.00;5042372;28;20462;-78
2024/02/09 00:47:01;;;;;;;7.78;3.08;;;;;;;8.33;100.00;95261.53;5042605;28;20400;-78
2024/02/09 00:49:28;;;;;;;5.05;2.75;;;;;;;8.31;100.00;95262.88;5042808;28;20403;-78
2024/02/09 00:51:56;;;;;;;4.65;2.40;;;;;;;8.29;100.00;95263.13;5042605;28;20462;-78
2024/02/09 00:54:22;;;;;;;4.85;2.53;;;;;;;8.27;100.00;95269.78;5042748;28;20409;-78
2024/02/09 00:56:49;;;;;;;5.18;2.42;;;;;;;8.26;100.00;95265.56;5042009;28;20395;-78
2024/02/09 00:59:18;;;;;;;5.28;2.50;;;;;;;8.24;100.00;95270.34;5042710;28;20399;-78
2024/02/09 01:01:45;;;;;;;4.72;2.50;;;;;;;8.24;100.00;95270.34;5041930;28;20395;-78
2024/02/09 01:04:12;;;;;;;2.97;2.00;;;;;;;8.22;100.00;95270.63;5040237;28;20414;-78
2024/02/09 01:06:38;;;;;;;6.18;2.75;;;;;;;8.22;100.00;95267.19;5041491;28;20887;-78
2024/02/09 01:09:06;;;;;;;4.40;2.55;;;;;;;8.21;100.00;95270.91;5043065;28;20582;-78
2024/02/09 01:11:32;;;;;;;2.92;2.33;;;;;;;8.20;100.00;95267.47;5036815;28;20407;-78
2024/02/09 02:47:03;;;;;;;4.57;2.40;;;;;;;7.92;100.00;95199.94;5042069;28;20433;-79
2024/02/09 03:05:58;;;;;;;3.03;2.10;;;;;;;7.91;100.00;95169.41;5042722;28;20479;-78
2024/02/09 03:08:24;;;;;;;2.72;1.95;;;;;;;7.92;100.00;95163.06;5042650;28;20391;-78
2024/02/09 03:10:51;;;;;;;2.88;1.92;;;;;;;7.91;100.00;95159.66;5042133;28;20399;-79
2024/02/09 03:13:17;;;;;;;2.40;1.90;;;;;;;7.92;100.00;95158.59;5043326;28;20459;-78
2024/02/09 03:15:47;;;;;;;2.90;2.10;;;;;;;7.94;100.00;95159.09;5042926;28;20399;-79
2024/02/09 03:18:17;;;;;;;3.60;1.88;;;;;;;7.94;100.00;95159.09;5043358;28;20474;-78
2024/02/09 03:20:43;;;;;;;2.00;1.80;;;;;;;7.95;100.00;95155.41;5043022;28;20892;-79
2024/02/09 03:23:09;;;;;;;2.80;1.90;;;;;;;7.96;100.00;95150.91;5042554;28;20407;-79
2024/02/09 03:25:36;;;;;;;4.05;2.40;;;;;;;7.97;100.00;95152.47;5046706;28;20426;-79
2024/02/09 03:28:02;;;;;;;8.85;3.08;;;;;;;7.98;100.00;95140.84;5047190;28;20399;-79
2024/02/09 03:30:29;;;;;;;5.15;2.88;;;;;;;7.98;100.00;95146.91;5046350;28;20403;-78
2024/02/09 03:32:55;;;;;;;4.85;2.35;;;;;;;7.99;100.00;95145.81;5046368;28;20399;-78
2024/02/09 03:35:25;;;;;;;5.47;2.95;;;;;;;7.99;100.00;95132.66;5046716;28;20458;-78
2024/02/09 03:37:51;;;;;;;6.53;3.00;;;;;;;8.01;100.00;95129.75;5046704;28;20399;-78
2024/02/09 03:40:17;;;;;;;5.05;2.75;;;;;;;8.01;100.00;95127.88;5046877;28;20453;-78
2024/02/09 03:42:43;;;;;;;6.03;3.00;;;;;;;8.03;100.00;95138.94;5046572;28;20415;-79
2024/02/09 03:45:10;;;;;;;5.88;3.00;;;;;;;8.05;100.00;95131.50;5046911;28;20493;-78
2024/02/09 03:47:36;;;;;;;3.90;2.40;;;;;;;8.07;100.00;95124.09;5048498;28;20399;-79
2024/02/09 03:50:04;;;;;;;10.63;4.20;;;;;;;8.08;100.00;95119.59;5044866;28;20490;-78
2024/02/09 03:52:32;;;;;;;6.80;3.10;;;;;;;8.09;100.00;95129.84;5043356;28;20425;-78
2024/02/09 03:54:58;;;;;;;7.85;3.10;;;;;;;8.11;100.00;95116.41;5043807;28;20395;-79
2024/02/09 03:57:26;;;;;;;11.73;3.80;;;;;;;8.10;100.00;95112.97;5044085;28;20395;-78
2024/02/09 03:59:53;;;;;;;7.70;3.10;;;;;;;8.13;100.00;95111.59;5043668;28;20404;-78
2024/02/09 04:02:19;;;;;;;10.10;3.58;;;;;;;8.13;100.00;95111.59;5043768;28;20399;-79
2024/02/09 04:04:49;;;;;;;7.07;3.17;;;;;;;8.14;100.00;95113.16;5042919;28;20494;-79
2024/02/09 04:07:20;;;;;;;7.10;3.17;;;;;;;8.13;100.00;95109.75;5042832;28;20458;-78
2024/02/09 04:09:48;;;;;;;5.18;2.90;;;;;;;8.14;100.00;95116.59;5042633;28;20398;-79
2024/02/09 04:12:15;;;;;;;7.28;2.80;;;;;;;8.14;100.00;95110.53;5042240;28;20409;-78
2024/02/09 04:14:41;;;;;;;10.27;3.38;;;;;;;8.12;100.00;95108.19;5041513;28;20483;-78
2024/02/09 04:17:07;;;;;;;9.18;3.28;;;;;;;8.12;100.00;95099.50;5042875;28;20426;-78
2024/02/09 04:19:34;;;;;;;4.88;2.70;;;;;;;8.13;100.00;95103.69;5042896;28;20403;-79
2024/02/09 04:22:00;;;;;;;5.22;2.15;;;;;;;8.13;100.00;95103.69;5042988;28;20411;-78
2024/02/09 04:24:27;;;;;;;6.30;2.70;;;;;;;8.13;100.00;95101.06;5042813;28;20502;-79
2024/02/09 04:26:55;;;;;;;3.00;2.10;;;;;;;8.11;100.00;95104.00;5042651;28;20425;-79
2024/02/09 04:29:22;;;;;;;9.40;3.60;;;;;;;8.09;100.00;95111.41;5043078;28;20462;-78
2024/02/09 04:31:48;;;;;;;5.53;2.67;;;;;;;8.09;100.00;95108.00;5043895;28;20391;-79
2024/02/09 04:34:14;;;;;;;4.03;2.20;;;;;;;8.09;100.00;95116.69;5042748;28;20411;-79
2024/02/09 04:36:42;;;;;;;6.82;2.28;;;;;;;8.08;100.00;95107.22;5041414;28;20399;-78
2024/02/09 04:39:10;;;;;;;4.60;2.10;;;;;;;8.07;100.00;95105.66;5042246;28;20391;-78
2024/02/09 04:41:36;;;;;;;5.70;2.67;;;;;;;8.06;100.00;95101.44;5042052;28;20419;-79
2024/02/09 04:44:04;;;;;;;3.95;2.00;;;;;;;8.05;100.00;95101.72;5042193;28;20445;-78
2024/02/09 04:46:32;;;;;;;2.70;1.90;;;;;;;8.02;100.00;95094.41;5044724;28;20429;-78
2024/02/09 04:48:59;;;;;;;10.32;3.40;;;;;;;8.01;100.00;95101.53;5052905;28;20410;-79
2024/02/09 04:51:25;;;;;;;7.03;3.63;;;;;;;8.02;100.00;95115.50;5050512;28;20411;-79
2024/02/09 04:53:51;;;;;;;9.52;3.75;;;;;;;8.03;100.00;95109.94;5040848;28;20407;-79
2024/02/09 04:56:25;;;;;;;6.13;3.10;;;;;;;8.05;100.00;95101.72;5041079;28;20399;-79
2024/02/09 04:58:52;;;;;;;6.30;3.10;;;;;;;8.04;100.00;95100.19;5040262;28;20411;-79
2024/02/09 05:01:27;;;;;;;4.10;2.90;;;;;;;8.04;100.00;95103.59;5038310;28;20877;-79
2024/02/09 05:03:55;;;;;;;4.13;2.23;;;;;;;8.04;100.00;95100.94;5037744;28;20504;-80
2024/02/09 05:06:21;;;;;;;3.45;2.10;;;;;;;8.06;100.00;95108.56;5037818;28;20430;-79
2024/02/09 05:08:47;;;;;;;9.20;2.55;;;;;;;8.04;100.00;95103.59;5037696;28;20395;-78
2024/02/09 05:11:14;;;;;;;3.33;2.30;;;;;;;8.04;100.00;95102.81;5040218;28;20397;-78
2024/02/09 05:13:40;;;;;;;3.22;2.03;;;;;;;8.04;100.00;95094.91;5039323;28;20437;-78
2024/02/09 05:16:09;;;;;;;7.68;2.78;;;;;;;8.03;100.00;95080.19;5035914;28;20482;-79
2024/02/09 05:18:37;;;;;;;4.10;2.40;;;;;;;8.05;100.00;95083.28;5041611;28;20399;-79
2024/02/09 05:21:04;;;;;;;2.00;1.77;;;;;;;8.05;100.00;95072.75;5045075;28;20752;-79
2024/02/09 05:23:30;;;;;;;2.83;1.85;;;;;;;8.04;100.00;95071.97;5044445;28;20447;-79
2024/02/09 05:25:57;;;;;;;2.20;1.80;;;;;;;8.03;100.00;95070.44;5042934;28;20403;-79
2024/02/09 05:28:23;;;;;;;3.08;1.90;;;;;;;8.04;100.00;95065.94;5044626;28;20452;-78
2024/02/09 05:30:49;;;;;;;1.90;1.50;;;;;;;8.03;100.00;95073.06;5047752;28;20407;-79
2024/02/09 05:33:16;;;;;;;4.10;2.08;;;;;;;8.03;100.00;95073.06;5046724;28;20410;-79
2024/02/09 05:35:44;;;;;;;6.10;2.80;;;;;;;8.06;100.00;95072.47;5041897;28;20403;-79
2024/02/09 05:38:11;;;;;;;4.32;2.25;;;;;;;8.09;100.00;95068.47;5036544;28;20434;-79
2024/02/09 05:40:38;;;;;;;8.75;3.15;;;;;;;8.09;100.00;95073.75;5038374;28;20430;-79
2024/02/09 05:43:04;;;;;;;5.30;2.60;;;;;;;8.14;100.00;95069.16;5043175;28;21062;-79
2024/02/09 05:45:32;;;;;;;5.57;2.80;;;;;;;8.15;100.00;95065.44;5042216;28;20399;-80
2024/02/09 05:47:58;;;;;;;3.47;2.22;;;;;;;8.21;100.00;95062.72;5042338;28;20403;-80
2024/02/09 05:50:25;;;;;;;5.57;2.80;;;;;;;8.19;100.00;95070.16;5046115;28;20423;-79
2024/02/09 05:52:56;;;;;;;4.68;2.53;;;;;;;8.24;100.00;95056.88;5050703;28;20400;-78
2024/02/09 05:55:23;;;;;;;3.30;1.90;;;;;;;8.25;100.00;95055.81;5047085;28;20478;-79
2024/02/09 05:57:54;;;;;;;6.05;2.35;;;;;;;8.24;100.00;95056.88;5040187;28;20395;-80
2024/02/09 06:00:21;;;;;;;4.77;2.23;;;;;;;8.23;100.00;95050.03;5048266;28;20509;-80
2024/02/09 06:02:50;;;;;;;4.68;2.25;;;;;;;8.22;100.00;95053.75;5043256;28;20478;-81
2024/02/09 06:05:16;;;;;;;5.00;2.33;;;;;;;8.22;100.00;95056.38;5041782;28;20403;-82
2024/02/09 06:07:43;;;;;;;6.00;2.20;;;;;;;8.24;100.00;95046.31;5038829;28;20419;-79
2024/02/09 06:10:11;;;;;;;2.20;1.80;;;;;;;8.22;100.00;95046.63;5034879;28;20395;-78
2024/02/09 06:12:37;;;;;;;3.40;2.00;;;;;;;8.21;100.00;95054.81;5038568;28;20768;-80
2024/02/09 06:15:05;;;;;;;1.88;1.58;;;;;;;8.18;100.00;95050.91;5036832;28;20411;-79
2024/02/09 06:17:31;;;;;;;3.37;1.90;;;;;;;8.13;100.00;95057.06;5035403;28;20395;-79
2024/02/09 06:19:57;;;;;;;4.68;2.13;;;;;;;8.14;100.00;95055.97;5036898;28;20410;-79
2024/02/09 06:22:25;;;;;;;4.07;2.00;;;;;;;8.16;100.00;95061.75;5035695;28;20403;-79
2024/02/09 06:24:54;;;;;;;3.33;1.80;;;;;;;8.19;100.00;95059.59;5036064;28;20448;-78
2024/02/09 06:27:22;;;;;;;2.97;1.83;;;;;;;8.19;100.00;95060.41;5040214;28;20399;-79
2024/02/09 06:29:49;;;;;;;3.00;1.80;;;;;;;8.21;100.00;95060.06;5035789;28;20539;-78
2024/02/09 06:32:15;;;;;;;3.03;2.05;;;;;;;8.21;100.00;95057.44;5035553;28;20395;-78
2024/02/09 06:34:42;;;;;;;9.23;2.70;;;;;;;8.19;100.00;95056.97;5035529;28;20840;-79
2024/02/09 06:37:08;;;;;;;3.38;2.13;;;;;;;8.21;100.00;95058.22;5035456;28;20757;-79
2024/02/09 06:39:35;;;;;;;2.38;1.90;;;;;;;8.27;100.00;95061.56;5035399;28;20937;-79
2024/02/09 06:42:01;;;;;;;3.80;1.70;;;;;;;8.28;100.00;95055.97;5035422;28;20406;-79
2024/02/09 06:44:30;;;;;;;2.47;1.60;;;;;;;8.30;100.00;95058.31;5035314;28;20411;-79
2024/02/09 06:46:57;;;;;;;3.93;1.87;;;;;;;8.29;100.00;95057.53;5035832;28;20880;-79
2024/02/09 06:49:28;;;;;;;2.80;1.93;;;;;;;8.30;100.00;95050.41;5035864;28;20821;-79
2024/02/09 06:51:54;;;;;;;4.47;2.00;;;;;;;8.30;100.00;95056.47;5036478;28;20391;-79
2024/02/09 06:54:22;;;;;;;3.33;2.10;;;;;;;8.34;100.00;95051.44;5043500;28;20414;-80
2024/02/09 06:56:53;;;;;;;3.03;1.83;;;;;;;8.35;100.00;95055.63;5033936;28;20916;-78
2024/02/09 06:59:22;;;;;;;2.53;1.85;;;;;;;8.36;100.00;95052.69;5035885;28;20406;-78
2024/02/09 07:01:50;;;;;;;3.22;1.90;;;;;;;8.38;100.00;95057.69;5037435;28;20395;-78
2024/02/09 07:04:18;;;;;;;3.97;1.90;;;;;;;8.37;100.00;95040.28;5037967;28;20480;-78
2024/02/09 07:06:47;;;;;;;2.17;1.80;;;;;;;8.37;100.00;95041.06;5037819;28;20409;-78
2024/02/09 07:09:17;;;;;;;4.03;2.03;;;;;;;8.30;100.00;95045.16;5038074;28;20450;-77
2024/02/09 07:11:45;;;;;;;3.90;2.23;;;;;;;8.33;100.00;95066.47;5040602;28;20398;-79
2024/02/09 07:14:11;;;;;;;3.50;2.10;;;;;;;8.31;100.00;95067.84;5039198;28;20406;-79
2024/02/09 07:16:37;;;;;;;3.47;1.98;;;;;;;8.30;100.00;95068.88;5039559;28;20398;-79
2024/02/09 07:19:05;;;;;;;3.03;1.73;;;;;;;8.29;100.00;95076.00;5039009;28;20405;-80
2024/02/09 07:21:31;;;;;;;2.67;1.90;;;;;;;8.29;100.00;95068.09;5040714;28;20439;-80
2024/02/09 07:23:58;;;;;;;1.75;1.63;;;;;;;8.30;100.00;95077.56;5049394;28;20929;-80
2024/02/09 07:26:25;;;;;;;3.38;1.75;;;;;;;8.30;100.00;95076.78;5049300;28;20882;-79
2024/02/09 07:28:51;;;;;;;2.47;1.67;;;;;;;8.31;100.00;95075.75;5049766;28;20495;-81
2024/02/09 07:31:21;;;;;;;1.67;1.40;;;;;;;8.32;100.00;95069.41;5044171;28;20451;-81
2024/02/09 07:33:47;;;;;;;2.75;1.80;;;;;;;8.31;100.00;95079.16;5054121;28;20405;-80
2024/02/09 07:36:15;;;;;;;5.90;2.50;;;;;;;8.30;100.00;95074.94;5039723;28;20521;-81
2024/02/09 07:38:41;;;;;;;2.90;1.90;;;;;;;8.34;100.00;95069.91;5046447;28;20395;-81
2024/02/09 07:41:10;;;;;;;2.15;1.83;;;;;;;8.36;100.00;95075.63;5041693;28;20752;-81
2024/02/09 07:43:36;;;;;;;4.72;2.10;;;;;;;8.37;100.00;95071.94;5040446;28;20847;-79
2024/02/09 07:46:03;;;;;;;3.25;1.83;;;;;;;8.38;100.00;95081.41;5042588;28;20427;-80
2024/02/09 07:48:29;;;;;;;3.03;2.00;;;;;;;8.40;100.00;95068.72;5042142;28;20872;-78
2024/02/09 07:50:56;;;;;;;4.70;2.38;;;;;;;8.36;100.00;95055.31;5039539;28;20399;-78
2024/02/09 07:53:24;;;;;;;5.07;2.47;;;;;;;8.39;100.00;95052.13;5039402;28;20433;-78
2024/02/09 07:55:50;;;;;;;3.20;2.05;;;;;;;8.44;100.00;95056.50;5042768;28;20440;-80
2024/02/09 07:58:16;;;;;;;3.47;2.07;;;;;;;8.51;100.00;95060.31;5037108;28;20407;-78
2024/02/09 08:00:43;;;;;;;3.10;1.85;;;;;;;8.61;100.00;95050.63;5036725;28;20434;-78
2024/02/09 08:03:10;;;;;;;2.47;2.00;;;;;;;8.69;100.00;95058.63;5043932;28;20559;-77
2024/02/09 08:05:37;;;;;;;2.10;1.70;;;;;;;8.77;100.00;95055.31;5042158;28;20428;-78
2024/02/09 08:08:03;;;;;;;1.98;1.60;;;;;;;8.87;100.00;95051.69;5053167;28;20504;-78
2024/02/09 08:10:35;;;;;;;2.67;1.52;;;;;;;8.97;100.00;95055.94;5047608;28;20402;-77
2024/02/09 08:13:02;;;;;;;3.63;1.73;;;;;;;9.04;100.00;95058.94;5035789;28;20407;-77
2024/02/09 08:15:28;;;;;;;2.10;1.60;;;;;;;9.08;100.00;95058.06;5034998;28;20534;-77
2024/02/09 08:17:54;;;;;;;4.05;2.00;;;;;;;9.11;100.00;95069.88;5038177;28;20396;-78
2024/02/09 08:20:20;;;;;;;6.70;2.10;;;;;;;8.97;100.00;95071.75;5035345;28;20485;-78
2024/02/09 08:22:46;;;;;;;2.53;1.65;;;;;;;9.08;100.00;95073.13;5036955;28;20422;-78
2024/02/09 08:25:13;;;;;;;2.17;1.70;;;;;;;9.14;100.00;95066.63;5046234;28;20413;-81
2024/02/09 08:27:41;;;;;;;1.92;1.52;;;;;;;9.20;100.00;95079.41;5044934;28;20786;-79
2024/02/09 08:30:08;;;;;;;2.10;1.50;;;;;;;9.25;100.00;95075.88;5056440;28;20456;-78
2024/02/09 08:32:35;;;;;;;1.58;1.40;;;;;;;9.30;100.00;95076.56;5055523;28;20402;-81
2024/02/09 08:35:01;;;;;;;1.58;1.30;;;;;;;9.37;100.00;95078.00;5055690;28;20404;-78
2024/02/09 08:37:29;;;;;;;2.25;1.52;;;;;;;9.38;100.00;95087.50;5058156;28;20428;-81
2024/02/09 08:39:55;;;;;;;1.73;1.50;;;;;;;9.44;100.00;95075.72;5058967;28;20408;-80
2024/02/09 08:42:21;;;;;;;1.40;1.30;;;;;;;9.52;100.00;95083.72;5058211;28;20404;-81
2024/02/09 08:44:49;;;;;;;1.60;1.50;;;;;;;9.60;100.00;95085.63;5058048;28;20470;-81
2024/02/09 08:47:15;;;;;;;2.80;1.90;;;;;;;9.59;100.00;95080.66;5057994;28;20394;-80
2024/02/09 08:49:42;;;;;;;3.25;1.63;;;;;;;9.61;100.00;95076.63;5058514;28;20784;-79
2024/02/09 08:52:09;;;;;;;2.20;1.42;;;;;;;9.66;100.00;95076.50;5048665;28;20403;-79
2024/02/09 08:54:36;;;;;;;1.40;1.30;;;;;;;9.73;100.00;95080.56;5044522;28;20410;-77
2024/02/09 08:57:02;;;;;;;2.53;1.80;;;;;;;9.77;100.00;95071.75;5038923;28;20391;-79
2024/02/09 08:59:28;;;;;;;1.73;1.40;;;;;;;9.80;100.00;95079.06;5037265;28;20399;-80
2024/02/09 09:01:55;;;;;;;3.40;1.80;;;;;;;9.83;100.00;95086.41;5037405;28;20399;-80
2024/02/09 09:04:21;;;;;;;2.83;1.63;;;;;;;9.90;100.00;95078.81;5038863;28;20419;-80
2024/02/09 09:06:48;;;;;;;1.70;1.55;;;;;;;10.01;100.00;95074.81;5041351;28;20399;-80
2024/02/09 09:09:15;;;;;;;2.50;1.48;;;;;;;10.16;100.00;95080.81;5037406;28;20902;-80
2024/02/09 09:11:41;;;;;;;2.40;1.60;;;;;;;10.33;100.00;95079.06;5037541;28;20419;-80
2024/02/09 09:14:08;;;;;;;1.90;1.45;;;;;;;10.55;100.00;95086.13;5036406;28;20399;-81
2024/02/09 09:16:34;;;;;;;1.70;1.23;;;;;;;10.82;100.00;95080.63;5037530;28;20391;-80
2024/02/09 09:19:05;;;;;;;1.60;1.20;;;;;;;11.06;100.00;95080.16;5037143;28;20869;-80
2024/02/09 09:21:31;;;;;;;1.20;1.10;;;;;;;11.24;100.00;95076.44;5037666;28;20403;-79
2024/02/09 09:23:59;;;;;;;2.08;1.30;;;;;;;11.38;100.00;95086.88;5038589;28;20419;-80
2024/02/09 09:26:30;;;;;;;3.20;1.60;;;;;;;11.45;100.00;95078.47;5038381;28;20427;-80
2024/02/09 09:28:56;;;;;;;4.47;2.00;;;;;;;11.21;100.00;95082.34;5037682;28;20410;-81
2024/02/09 09:31:25;;;;;;;1.70;1.40;;;;;;;11.28;100.00;95062.59;5040506;28;20407;-80
2024/02/09 09:33:51;;;;;;;4.90;1.90;;;;;;;11.36;100.00;95078.47;5036879;28;20448;-81
2024/02/09 09:36:19;;;;;;;2.75;1.73;;;;;;;11.40;100.00;95068.81;5036034;28;20430;-78
2024/02/09 09:38:45;;;;;;;1.92;1.42;;;;;;;11.55;100.00;95075.50;5034510;28;20399;-79
2024/02/09 09:41:12;;;;;;;1.80;1.40;;;;;;;11.64;100.00;95074.44;5036787;28;20398;-79
2024/02/09 09:43:39;;;;;;;2.53;1.65;;;;;;;11.55;100.00;95073.66;5038549;28;20418;-80
2024/02/09 09:46:09;;;;;;;3.78;1.77;;;;;;;11.35;100.00;95071.59;5039877;28;20390;-78
2024/02/09 09:48:35;;;;;;;2.88;1.50;;;;;;;11.36;100.00;95072.38;5042431;28;20407;-78
2024/02/09 09:51:05;;;;;;;1.65;1.20;;;;;;;11.34;100.00;95080.66;5036261;28;20892;-79
2024/02/09 09:53:38;;;;;;;2.97;1.60;;;;;;;11.36;100.00;95077.69;5036475;28;20445;-78
2024/02/09 09:56:06;;;;;;;5.03;1.63;;;;;;;11.37;100.00;95077.38;5035799;28;20506;-79
2024/02/09 09:58:33;;;;;;;5.32;1.80;;;;;;;11.43;100.00;95064.75;5035130;28;20402;-79
2024/02/09 10:01:01;;;;;;;8.43;2.50;;;;;;;11.35;100.00;95068.97;5036333;28;20399;-78
2024/02/09 10:03:29;;;;;;;36.60;3.28;;;;;;;11.39;100.00;95054.03;5035861;28;20423;-78
2024/02/09 10:05:55;;;;;;;5.15;1.90;;;;;;;11.61;100.00;95050.41;5017912;28;20399;-79
2024/02/09 10:08:22;;;;;;;5.28;1.60;;;;;;;11.65;100.00;95049.47;5035702;28;20430;-78
2024/02/09 10:10:51;;;;;;;3.63;1.75;;;;;;;11.74;100.00;95043.38;5036506;28;20399;-79
2024/02/09 10:13:22;;;;;;;3.30;1.50;;;;;;;11.79;100.00;95044.03;5035983;28;20409;-78
2024/02/09 10:15:50;;;;;;;2.40;1.52;;;;;;;11.81;100.00;95047.13;5035554;28;20395;-78
2024/02/09 10:18:16;;;;;;;2.33;1.58;;;;;;;11.79;100.00;95045.91;5035678;28;20393;-78
2024/02/09 10:20:46;;;;;;;2.75;1.50;;;;;;;11.68;100.00;95050.72;5035796;28;20406;-78
2024/02/09 10:23:12;;;;;;;4.75;2.08;;;;;;;11.65;100.00;95043.41;5036375;28;20427;-78
2024/02/09 10:25:39;;;;;;;3.97;2.00;;;;;;;11.64;100.00;95039.97;5035735;28;20398;-79
2024/02/09 10:28:07;;;;;;;5.05;2.03;;;;;;;11.65;100.00;95041.50;5035808;28;20398;-78
2024/02/09 10:30:35;;;;;;;6.18;1.83;;;;;;;11.72;100.00;95040.28;5033914;28;20395;-77
2024/02/09 10:33:01;;;;;;;4.47;1.85;;;;;;;11.61;100.00;95034.50;5034028;28;20490;-79
2024/02/09 10:35:27;;;;;;;6.53;2.42;;;;;;;11.75;100.00;95031.72;5039468;28;20423;-79
2024/02/09 10:37:59;;;;;;;5.18;2.40;;;;;;;11.64;100.00;95016.13;5039277;28;20457;-78
2024/02/09 10:40:26;;;;;;;4.67;2.20;;;;;;;11.72;100.00;95025.16;5039495;28;20411;-79
2024/02/09 10:42:53;;;;;;;4.90;1.90;;;;;;;11.74;100.00;95030.94;5039766;28;20395;-80
2024/02/09 10:45:20;;;;;;;3.47;1.75;;;;;;;11.86;100.00;95025.75;5040689;28;20387;-79
2024/02/09 10:47:50;;;;;;;6.50;2.00;;;;;;;11.89;100.00;95016.38;5039915;28;20405;-78
2024/02/09 10:50:17;;;;;;;3.05;1.85;;;;;;;12.02;100.00;95021.50;5037535;28;20493;-78
2024/02/09 10:52:49;;;;;;;2.58;1.70;;;;;;;12.10;100.00;95021.78;5037099;28;20942;-77
2024/02/09 10:55:20;;;;;;;2.55;1.65;;;;;;;12.11;100.00;95021.44;5037280;28;20391;-78
2024/02/09 10:57:49;;;;;;;2.75;1.60;;;;;;;12.20;100.00;95013.47;5035590;28;20413;-78
2024/02/09 11:00:16;;;;;;;11.13;3.30;;;;;;;12.17;100.00;95006.16;5028085;28;20814;-77
2024/02/09 11:02:44;;;;;;;5.97;2.13;;;;;;;12.18;100.00;95000.53;5027609;28;20396;-78
2024/02/09 11:05:14;;;;;;;4.05;1.58;;;;;;;12.29;100.00;95006.25;5020413;28;20432;-78
2024/02/09 11:07:42;;;;;;;3.95;1.98;;;;;;;12.27;100.00;94992.53;5025583;28;20400;-77
2024/02/09 11:10:08;;;;;;;3.08;1.73;;;;;;;12.38;100.00;94996.38;5041294;28;20410;-78
2024/02/09 11:12:34;;;;;;;4.05;1.80;;;;;;;12.33;100.00;94988.59;5036975;28;20888;-79
2024/02/09 11:15:12;;;;;;;6.85;2.10;;;;;;;12.26;100.00;94986.44;5035186;28;20441;-77
2024/02/09 11:17:45;;;;;;;4.80;1.90;;;;;;;12.31;100.00;94977.53;5037233;28;20395;-79
2024/02/09 11:20:12;;;;;;;4.55;1.77;;;;;;;12.38;100.00;94980.47;5037296;28;20403;-79
2024/02/09 11:22:38;;;;;;;2.35;1.65;;;;;;;12.52;100.00;94980.22;5038852;28;20851;-79
2024/02/09 11:25:08;;;;;;;5.40;1.80;;;;;;;12.62;100.00;94972.69;5038876;28;20414;-79
2024/02/09 11:27:35;;;;;;;3.42;1.33;;;;;;;12.67;100.00;94984.97;5039175;28;20948;-79
2024/02/09 11:30:02;;;;;;;3.13;1.60;;;;;;;12.58;100.00;94969.09;5045544;28;20406;-79
2024/02/09 11:32:28;;;;;;;5.00;2.08;;;;;;;12.35;100.00;94963.31;5043262;28;20424;-79
2024/02/09 11:34:56;;;;;;;5.05;1.80;;;;;;;12.33;100.00;94951.44;5037826;28;20959;-80
2024/02/09 11:37:24;;;;;;;3.63;1.52;;;;;;;12.24;100.00;94971.97;5036179;28;20789;-79
2024/02/09 11:39:50;;;;;;;5.13;2.10;;;;;;;12.08;100.00;94961.13;5038768;28;20941;-78
2024/02/09 11:42:17;;;;;;;2.58;1.45;;;;;;;12.11;100.00;94964.97;5038672;28;20506;-80
2024/02/09 11:44:44;;;;;;;2.78;1.75;;;;;;;12.07;100.00;94975.47;5043009;28;20493;-78
2024/02/09 11:47:12;;;;;;;2.40;1.60;;;;;;;12.02;100.00;94976.44;5044599;28;20406;-78
2024/02/09 11:49:41;;;;;;;3.60;1.80;;;;;;;11.93;100.00;94975.69;5044162;28;20415;-78
2024/02/09 11:52:09;;;;;;;3.60;1.35;;;;;;;11.90;100.00;94975.53;5046370;28;20461;-77
2024/02/09 11:54:36;;;;;;;4.20;1.50;;;;;;;11.83;100.00;94969.94;5042206;28;20407;-80
2024/02/09 11:57:03;;;;;;;3.28;1.52;;;;;;;11.76;100.00;94973.09;5042432;28;20641;-79
2024/02/09 11:59:30;;;;;;;2.78;1.60;;;;;;;11.70;100.00;94976.97;5036243;28;20398;-77
2024/02/09 12:01:56;;;;;;;1.80;1.30;;;;;;;11.67;100.00;94974.94;5039072;28;20399;-77
2024/02/09 12:04:24;;;;;;;4.88;1.67;;;;;;;11.55;100.00;94972.19;5037158;28;20426;-78
2024/02/09 12:06:50;;;;;;;2.83;1.70;;;;;;;11.55;100.00;94965.03;5027565;28;20569;-78
2024/02/09 12:09:17;;;;;;;1.60;1.50;;;;;;;11.51;100.00;94971.25;5018174;28;20420;-78
2024/02/09 12:11:47;;;;;;;4.15;1.60;;;;;;;11.47;100.00;94967.69;5022311;28;20436;-81
2024/02/09 12:14:13;;;;;;;2.20;1.52;;;;;;;11.50;100.00;94970.47;5037218;28;20413;-78
2024/02/09 12:16:40;;;;;;;1.65;1.40;;;;;;;11.51;100.00;94964.06;5036281;28;20394;-78
2024/02/09 12:19:06;;;;;;;1.80;1.40;;;;;;;11.52;100.00;94970.94;5048353;28;20405;-77
2024/02/09 12:21:32;;;;;;;2.88;1.40;;;;;;;11.52;100.00;94968.28;5047939;28;20415;-78
2024/02/09 12:23:59;;;;;;;1.52;1.30;;;;;;;11.52;100.00;94970.16;5036439;28;20472;-78
2024/02/09 12:26:27;;;;;;;3.55;1.70;;;;;;;11.45;100.00;94967.22;5034443;28;20403;-78
2024/02/09 12:28:54;;;;;;;2.42;1.63;;;;;;;11.36;100.00;94966.44;5036306;28;20896;-77
2024/02/09 12:31:21;;;;;;;2.10;1.25;;;;;;;11.29;100.00;94956.34;5035207;28;20470;-78
2024/02/09 12:33:49;;;;;;;6.70;2.25;;;;;;;11.03;100.00;94939.72;5035127;28;20403;-79
2024/02/09 12:36:19;;;;;;;5.60;2.50;;;;;;;10.95;100.00;94940.50;5037146;28;21108;-79
2024/02/09 12:38:49;;;;;;;6.38;2.22;;;;;;;10.83;100.00;94947.19;5038607;28;20399;-78
2024/02/09 12:41:15;;;;;;;3.00;1.85;;;;;;;10.76;100.00;94946.09;5020204;28;20486;-79
2024/02/09 12:43:44;;;;;;;2.63;1.73;;;;;;;10.70;100.00;94942.84;5039091;28;20421;-81
2024/02/09 12:46:11;;;;;;;2.90;1.75;;;;;;;10.66;100.00;94952.50;5038897;28;20402;-80
2024/02/09 12:48:37;;;;;;;2.20;1.60;;;;;;;10.65;100.00;94958.09;5029802;28;20397;-81
2024/02/09 12:51:05;;;;;;;2.35;1.58;;;;;;;10.64;100.00;94962.59;5039290;28;20407;-80
2024/02/09 12:53:33;;;;;;;2.00;1.50;;;;;;;10.67;100.00;94959.34;5039287;28;20395;-82
2024/02/09 12:55:59;;;;;;;4.85;2.17;;;;;;;10.67;100.00;94954.06;5038273;28;20403;-82
2024/02/09 12:58:25;;;;;;;3.33;1.77;;;;;;;10.65;100.00;94956.22;5028957;28;20426;-80
2024/02/09 13:00:53;;;;;;;3.53;1.80;;;;;;;10.62;100.00;94945.47;5039736;28;20787;-80
2024/02/09 13:03:20;;;;;;;2.58;1.77;;;;;;;10.59;100.00;94944.25;5037483;28;20405;-81
2024/02/09 13:05:47;;;;;;;3.05;1.80;;;;;;;10.59;100.00;94946.09;5037801;28;20406;-79
2024/02/09 13:08:13;;;;;;;2.15;1.60;;;;;;;10.61;100.00;94942.03;5036597;28;20843;-79
2024/02/09 13:10:39;;;;;;;2.45;1.80;;;;;;;10.68;100.00;94942.34;5037824;28;21349;-81
2024/02/09 13:13:08;;;;;;;2.10;1.50;;;;;;;10.75;100.00;94941.91;5038697;28;20486;-79
2024/02/09 13:15:35;;;;;;;1.90;1.60;;;;;;;10.79;100.00;94940.19;5038424;28;20872;-81
2024/02/09 13:18:03;;;;;;;2.43;1.73;;;;;;;10.88;100.00;94940.19;5038710;28;20391;-80